Terminal Aerodrome Forecast
Issued by NWS Wichita, KS

Home | Current Version | Previous Version | Text Only | Print | Product List | Glossary On
Versions: 1 2 3 4 5 6 7 8 9 10 11 12 13 14 15 16 17 18
000
FTUS43 KICT 240500
TAFICT
TAF
KICT 240520Z 2406/2506 17007KT P6SM BKN035
     FM241000 18006KT 4SM BR BKN012
     FM241500 21010KT P6SM SCT030=

USA.gov is the U.S. government's official web portal to all federal, state and local government web resources and services.